createdAt,value
2023-02-03T00:00:35.254Z,3.90
2023-02-03T00:03:24.976Z,4.00
2023-02-03T00:06:14.626Z,4.10
2023-02-03T00:09:01.855Z,4.15
2023-02-03T00:11:54.156Z,4.10
2023-02-03T00:14:40.918Z,3.75
2023-02-03T00:17:40.733Z,3.90
2023-02-03T00:20:29.966Z,4.05
2023-02-03T00:26:15.971Z,3.83
2023-02-03T00:29:28.380Z,3.67
2023-02-03T00:32:28.717Z,3.70
2023-02-03T00:38:30.747Z,3.63
2023-02-03T00:41:23.600Z,3.63
2023-02-03T00:44:10.841Z,3.70
2023-02-03T00:46:59.361Z,3.65
2023-02-03T00:49:46.255Z,3.65
2023-02-03T00:52:34.254Z,3.42
2023-02-03T00:55:24.264Z,3.50
2023-02-03T00:59:05.076Z,3.45
2023-02-03T01:05:33.754Z,3.67
2023-02-03T01:10:57.633Z,3.47
2023-02-03T01:17:26.201Z,3.35
2023-02-03T01:20:32.581Z,3.38
2023-02-03T01:23:33.231Z,3.28
2023-02-03T01:26:30.408Z,3.50
2023-02-03T01:29:19.504Z,3.67
2023-02-03T01:32:06.543Z,3.20
2023-02-03T01:34:56.816Z,3.22
2023-02-03T01:37:52.944Z,3.03
2023-02-03T01:40:46.163Z,3.15
2023-02-03T01:43:46.228Z,2.90
2023-02-03T01:53:52.707Z,2.80
2023-02-03T01:56:54.295Z,2.78
2023-02-03T01:59:57.855Z,2.90
2023-02-03T02:02:57.333Z,3.00
2023-02-03T02:05:50.029Z,2.80
2023-02-03T02:12:58.780Z,2.60
2023-02-03T02:16:16.729Z,2.80
2023-02-03T02:19:37.459Z,2.55
2023-02-03T02:23:25.652Z,2.40
2023-02-03T02:26:32.440Z,2.33
2023-02-03T02:29:58.900Z,2.20
2023-02-03T02:32:59.200Z,2.30
2023-02-03T02:36:13.383Z,2.50
2023-02-03T02:39:40.563Z,2.50
2023-02-03T02:42:33.672Z,2.10
2023-02-03T02:49:44.057Z,2.35
2023-02-03T02:52:44.520Z,2.10
2023-02-03T02:56:09.336Z,2.05
2023-02-03T02:59:01.243Z,2.20
2023-02-03T03:01:59.681Z,2.17
2023-02-03T03:05:00.925Z,2.30
2023-02-03T03:11:52.191Z,2.08
2023-02-03T03:19:04.316Z,1.85
2023-02-03T03:22:19.406Z,1.80
2023-02-03T03:25:44.252Z,2.00
2023-02-03T03:33:05.869Z,2.00
2023-02-03T03:48:37.044Z,2.15
2023-02-03T04:41:50.136Z,2.30
2023-02-03T04:56:41.883Z,2.20
2023-02-03T05:04:05.083Z,2.30
2023-02-03T05:10:42.646Z,2.20
2023-02-03T05:18:17.648Z,2.17
2023-02-03T05:21:48.971Z,2.10
2023-02-03T05:24:38.675Z,2.00
2023-02-03T05:34:16.795Z,2.17
2023-02-03T05:37:04.040Z,2.00
2023-02-03T05:39:50.906Z,2.00
2023-02-03T05:42:46.576Z,2.05
2023-02-03T05:45:33.752Z,2.03
2023-02-03T05:48:21.074Z,2.15
2023-02-03T05:51:08.332Z,2.10
2023-02-03T05:54:16.736Z,2.00
2023-02-03T05:57:17.149Z,2.20
2023-02-03T06:00:05.348Z,2.00
2023-02-03T06:02:53.453Z,2.00
2023-02-03T06:05:47.069Z,2.08
2023-02-03T06:08:33.997Z,2.22
2023-02-03T06:11:22.499Z,1.92
2023-02-03T06:14:10.305Z,1.90
2023-02-03T06:16:57.300Z,2.10
2023-02-03T06:19:56.011Z,2.00
2023-02-03T06:22:43.869Z,2.20
2023-02-03T06:26:17.144Z,2.10
2023-02-03T06:29:14.485Z,2.17
2023-02-03T06:32:18.258Z,2.30
2023-02-03T06:35:05.440Z,1.95
2023-02-03T06:37:53.353Z,2.00
2023-02-03T06:40:43.402Z,2.20
2023-02-03T06:43:32.888Z,2.10
2023-02-03T06:46:19.818Z,2.10
2023-02-03T06:49:06.678Z,2.28
2023-02-03T06:51:53.598Z,2.00
2023-02-03T06:54:40.478Z,2.05
2023-02-03T06:57:27.314Z,1.98
2023-02-03T07:00:18.633Z,1.92
2023-02-03T07:03:06.036Z,2.00
2023-02-03T07:05:52.908Z,1.95
2023-02-03T07:08:39.776Z,2.00
2023-02-03T07:11:27.071Z,1.95
2023-02-03T07:14:13.882Z,1.98
2023-02-03T07:17:00.955Z,1.98
2023-02-03T07:19:47.809Z,2.05
2023-02-03T07:22:36.386Z,1.90
2023-02-03T07:25:24.166Z,1.95
2023-02-03T07:28:11.579Z,2.03
2023-02-03T07:30:58.797Z,2.08
2023-02-03T07:33:45.699Z,1.92
2023-02-03T07:36:33.001Z,2.00
2023-02-03T07:39:19.986Z,2.03
2023-02-03T07:42:06.773Z,2.10
2023-02-03T07:44:56.555Z,2.00
2023-02-03T07:47:43.893Z,1.77
2023-02-03T07:50:30.887Z,2.03
2023-02-03T07:53:17.786Z,1.98
2023-02-03T07:56:05.369Z,1.90
2023-02-03T07:58:52.793Z,2.00
2023-02-03T08:01:39.710Z,2.13
2023-02-03T08:04:28.022Z,2.30
2023-02-03T08:07:14.875Z,1.80
2023-02-03T08:10:04.371Z,2.05
2023-02-03T08:12:55.070Z,2.08
2023-02-03T08:15:41.903Z,1.85
2023-02-03T08:18:32.742Z,1.90
2023-02-03T08:21:19.717Z,2.13
2023-02-03T08:24:06.785Z,2.03
2023-02-03T08:26:54.404Z,1.80
2023-02-03T08:29:41.274Z,1.90
2023-02-03T08:32:28.303Z,2.40
2023-02-03T08:35:15.256Z,2.20
2023-02-03T08:38:02.073Z,2.20
2023-02-03T08:40:48.848Z,1.83
2023-02-03T08:43:36.349Z,1.98
2023-02-03T08:46:23.178Z,2.00
2023-02-03T08:49:10.623Z,2.00
2023-02-03T08:51:58.156Z,2.00
2023-02-03T08:54:45.323Z,2.10
2023-02-03T08:57:34.095Z,1.90
2023-02-03T09:00:21.258Z,1.80
2023-02-03T09:03:08.125Z,1.83
2023-02-03T09:05:54.924Z,1.98
2023-02-03T09:08:43.136Z,1.70
2023-02-03T09:11:30.397Z,1.80
2023-02-03T09:14:17.835Z,1.90
2023-02-03T09:17:05.882Z,1.70
2023-02-03T09:19:53.269Z,1.83
2023-02-03T09:22:46.284Z,1.85
2023-02-03T09:25:33.920Z,1.65
2023-02-03T09:28:20.771Z,1.80
2023-02-03T09:31:15.597Z,1.67
2023-02-03T09:34:04.799Z,1.60
2023-02-03T09:36:52.165Z,1.80
2023-02-03T09:39:41.972Z,1.80
2023-02-03T09:43:05.745Z,1.80
2023-02-03T09:45:52.621Z,1.55
2023-02-03T09:48:54.490Z,1.73
2023-02-03T09:51:51.438Z,1.67
2023-02-03T09:54:58.827Z,1.83
2023-02-03T09:58:02.182Z,1.70
2023-02-03T10:00:55.472Z,1.80
2023-02-03T10:03:51.357Z,1.70
2023-02-03T10:06:41.962Z,1.77
2023-02-03T10:09:28.730Z,1.70
2023-02-03T10:12:39.689Z,1.70
2023-02-03T10:15:50.080Z,1.58
2023-02-03T10:18:44.648Z,1.70
2023-02-03T10:21:38.857Z,1.90
2023-02-03T10:24:39.525Z,1.70
2023-02-03T10:30:40.149Z,1.70
2023-02-03T10:33:32.810Z,1.70
2023-02-03T10:36:33.491Z,1.80
2023-02-03T10:39:42.796Z,1.65
2023-02-03T10:45:39.765Z,1.63
2023-02-03T10:48:27.258Z,1.60
2023-02-03T10:51:25.250Z,1.70
2023-02-03T10:54:33.500Z,1.70
2023-02-03T10:57:23.361Z,1.90
2023-02-03T11:00:33.003Z,1.70
2023-02-03T11:03:32.678Z,1.77
2023-02-03T11:06:20.014Z,1.80
2023-02-03T11:09:25.180Z,1.67
2023-02-03T11:12:14.972Z,1.67
2023-02-03T11:15:06.437Z,1.70
2023-02-03T11:17:54.925Z,1.88
2023-02-03T11:20:43.220Z,1.80
2023-02-03T11:23:35.827Z,1.60
2023-02-03T11:26:25.916Z,1.80
2023-02-03T11:29:24.056Z,1.70
2023-02-03T11:32:17.707Z,1.70
2023-02-03T11:35:13.845Z,1.90
2023-02-03T11:38:01.889Z,1.70
2023-02-03T11:40:59.444Z,1.65
2023-02-03T11:43:47.213Z,1.70
2023-02-03T11:46:46.982Z,1.55
2023-02-03T11:49:59.548Z,1.90
2023-02-03T11:52:56.134Z,1.60
2023-02-03T11:56:18.914Z,1.73
2023-02-03T11:59:35.807Z,1.70
2023-02-03T12:02:36.610Z,1.60
2023-02-03T12:05:32.688Z,1.70
2023-02-03T12:08:39.459Z,1.67
2023-02-03T12:11:36.606Z,2.00
2023-02-03T12:14:41.576Z,2.00
2023-02-03T12:17:49.703Z,1.70
2023-02-03T12:20:46.521Z,2.00
2023-02-03T12:23:39.718Z,1.90
2023-02-03T12:27:14.117Z,1.80
2023-02-03T12:30:09.782Z,1.75
2023-02-03T12:33:03.887Z,1.52
2023-02-03T12:35:54.578Z,1.60
2023-02-03T12:38:45.326Z,1.70
2023-02-03T12:41:36.815Z,1.85
2023-02-03T12:44:27.590Z,1.90
2023-02-03T12:47:50.904Z,1.80
2023-02-03T12:50:46.040Z,1.67
2023-02-03T12:53:40.125Z,1.80
2023-02-03T12:56:31.855Z,1.73
2023-02-03T12:59:22.910Z,2.15
2023-02-03T13:02:26.448Z,1.80
2023-02-03T13:05:23.696Z,1.75
2023-02-03T13:08:23.550Z,1.73
2023-02-03T13:11:15.575Z,1.88
2023-02-03T13:14:24.016Z,1.70
2023-02-03T13:17:29.251Z,1.60
2023-02-03T13:20:20.143Z,1.73
2023-02-03T13:23:10.566Z,1.73
2023-02-03T13:26:17.104Z,1.75
2023-02-03T13:29:33.429Z,1.70
2023-02-03T13:32:39.795Z,1.80
2023-02-03T13:35:48.425Z,1.70
2023-02-03T13:38:43.950Z,1.63
2023-02-03T13:41:39.851Z,1.90
2023-02-03T13:44:28.770Z,1.73
2023-02-03T13:47:25.481Z,1.40
2023-02-03T13:50:25.777Z,1.60
2023-02-03T13:53:22.523Z,1.52
2023-02-03T13:56:18.222Z,1.58
2023-02-03T13:59:05.139Z,1.50
2023-02-03T14:01:54.881Z,1.50
2023-02-03T14:04:47.724Z,1.60
2023-02-03T14:07:38.116Z,1.50
2023-02-03T14:10:25.738Z,1.30
2023-02-03T14:13:30.705Z,1.50
2023-02-03T14:16:24.819Z,1.40
2023-02-03T14:19:13.949Z,1.40
2023-02-03T14:22:05.760Z,1.58
2023-02-03T14:24:53.141Z,1.48
2023-02-03T14:27:40.065Z,1.50
2023-02-03T14:30:27.194Z,1.58
2023-02-03T14:33:14.005Z,1.33
2023-02-03T14:36:00.912Z,1.40
2023-02-03T14:38:47.731Z,1.20
2023-02-03T14:41:45.450Z,1.30
2023-02-03T14:45:03.508Z,1.30
2023-02-03T14:48:11.331Z,1.40
2023-02-03T14:51:13.293Z,1.50
2023-02-03T14:54:22.062Z,1.30
2023-02-03T14:57:29.326Z,1.65
2023-02-03T15:00:19.110Z,1.48
2023-02-03T15:03:12.005Z,1.30
2023-02-03T15:06:04.808Z,1.30
2023-02-03T15:08:53.080Z,1.40
2023-02-03T15:11:47.804Z,1.60
2023-02-03T15:14:37.733Z,1.38
2023-02-03T15:17:27.727Z,1.50
2023-02-03T15:20:40.440Z,1.30
2023-02-03T15:23:32.101Z,1.20
2023-02-03T15:26:27.333Z,1.30
2023-02-03T15:29:24.688Z,1.38
2023-02-03T15:32:20.526Z,1.30
2023-02-03T15:35:11.344Z,1.20
2023-02-03T15:38:04.523Z,1.20
2023-02-03T15:40:54.639Z,1.30
2023-02-03T15:43:44.501Z,1.30
2023-02-03T15:46:33.589Z,1.30
2023-02-03T15:49:39.142Z,1.30
2023-02-03T15:52:31.433Z,1.10
2023-02-03T15:55:44.529Z,1.30
2023-02-03T15:58:39.642Z,1.27
2023-02-03T16:01:28.089Z,1.38
2023-02-03T16:04:18.278Z,1.30
2023-02-03T16:07:05.117Z,1.20
2023-02-03T16:09:55.933Z,1.30
2023-02-03T16:12:42.971Z,1.30
2023-02-03T16:15:36.674Z,1.20
2023-02-03T16:18:23.628Z,1.33
2023-02-03T16:21:25.591Z,1.33
2023-02-03T16:24:47.893Z,1.35
2023-02-03T16:27:34.790Z,1.30
2023-02-03T16:30:42.307Z,1.50
2023-02-03T16:33:50.399Z,1.50
2023-02-03T16:37:00.983Z,1.45
2023-02-03T16:40:06.394Z,1.40
2023-02-03T16:43:11.838Z,1.40
2023-02-03T16:46:18.348Z,1.40
2023-02-03T16:49:24.013Z,1.40
2023-02-03T16:52:11.072Z,1.35
2023-02-03T16:54:58.794Z,1.60
2023-02-03T16:57:47.340Z,1.60
2023-02-03T17:00:34.239Z,1.60
2023-02-03T17:03:23.962Z,1.50
2023-02-03T17:06:12.233Z,1.40
2023-02-03T17:08:59.425Z,1.42
2023-02-03T17:11:46.485Z,1.40
2023-02-03T17:14:33.476Z,1.50
2023-02-03T17:17:24.591Z,1.60
2023-02-03T17:20:28.356Z,1.40
2023-02-03T17:23:18.840Z,1.50
2023-02-03T17:26:06.778Z,1.50
2023-02-03T17:28:55.349Z,1.52
2023-02-03T17:31:42.459Z,1.52
2023-02-03T17:34:29.323Z,1.33
2023-02-03T17:37:16.091Z,1.60
2023-02-03T17:55:28.683Z,1.70
2023-02-03T17:58:15.568Z,1.60
2023-02-03T18:01:16.160Z,1.65
2023-02-03T18:04:04.651Z,1.50
2023-02-03T18:06:54.474Z,1.42
2023-02-03T18:09:41.263Z,1.70
2023-02-03T18:12:28.094Z,1.65
2023-02-03T18:15:14.878Z,1.38
2023-02-03T18:18:01.679Z,1.58
2023-02-03T18:20:48.679Z,1.50
2023-02-03T18:23:36.371Z,1.52
2023-02-03T18:26:23.297Z,1.60
2023-02-03T18:29:11.595Z,1.67
2023-02-03T18:31:58.356Z,1.50
2023-02-03T18:34:45.142Z,1.60
2023-02-03T18:37:34.373Z,1.73
2023-02-03T18:43:07.999Z,1.50
2023-02-03T18:45:54.934Z,1.60
2023-02-03T18:48:41.758Z,1.50
2023-02-03T18:51:28.735Z,1.45
2023-02-03T18:54:15.564Z,1.80
2023-02-03T18:57:04.032Z,1.50
2023-02-03T18:59:50.919Z,1.70
2023-02-03T19:02:37.765Z,1.60
2023-02-03T19:05:24.564Z,1.50
2023-02-03T19:08:11.358Z,1.55
2023-02-03T19:10:58.130Z,1.65
2023-02-03T19:13:45.052Z,1.67
2023-02-03T19:16:31.897Z,1.50
2023-02-03T19:19:20.022Z,1.55
2023-02-03T19:22:06.918Z,1.63
2023-02-03T19:24:53.691Z,1.70
2023-02-03T19:27:40.506Z,1.60
2023-02-03T19:30:27.357Z,1.75
2023-02-03T19:33:14.175Z,1.60
2023-02-03T19:36:01.009Z,1.60
2023-02-03T19:38:47.762Z,1.63
2023-02-03T19:41:36.384Z,1.60
2023-02-03T19:44:23.164Z,1.70
2023-02-03T19:47:10.039Z,1.58
2023-02-03T19:49:57.677Z,1.65
2023-02-03T19:52:44.626Z,1.40
2023-02-03T19:55:31.954Z,1.65
2023-02-03T19:58:18.827Z,1.50
2023-02-03T20:01:05.693Z,1.63
2023-02-03T20:03:52.507Z,1.60
2023-02-03T20:06:39.480Z,1.40
2023-02-03T20:09:26.245Z,1.70
2023-02-03T20:12:13.147Z,1.50
2023-02-03T20:15:05.337Z,1.30
2023-02-03T20:17:52.153Z,1.50
2023-02-03T20:20:42.060Z,1.50
2023-02-03T20:23:28.940Z,1.58
2023-02-03T20:26:18.658Z,1.60
2023-02-03T20:29:05.862Z,1.50
2023-02-03T20:31:54.211Z,1.50
2023-02-03T20:34:40.999Z,1.60
2023-02-03T20:37:27.818Z,1.73
2023-02-03T20:40:18.745Z,1.50
2023-02-03T20:43:17.740Z,1.60
2023-02-03T20:46:15.945Z,1.55
2023-02-03T20:49:02.942Z,1.65
2023-02-03T20:51:52.072Z,1.60
2023-02-03T20:54:38.901Z,1.67
2023-02-03T20:57:25.674Z,1.67
2023-02-03T21:00:17.683Z,1.65
2023-02-03T21:03:23.117Z,1.60
2023-02-03T21:06:28.522Z,1.65
2023-02-03T21:09:17.930Z,1.70
2023-02-03T21:12:12.732Z,1.67
2023-02-03T21:14:59.563Z,1.70
2023-02-03T21:17:46.473Z,1.50
2023-02-03T21:20:36.364Z,1.50
2023-02-03T21:23:26.386Z,1.80
2023-02-03T21:26:26.298Z,1.90
2023-02-03T21:29:20.467Z,1.58
2023-02-03T21:32:13.457Z,1.63
2023-02-03T21:35:00.402Z,1.75
2023-02-03T21:37:52.887Z,1.90
2023-02-03T21:40:39.664Z,1.90
2023-02-03T21:43:26.988Z,1.70
2023-02-03T21:46:21.425Z,1.80
2023-02-03T21:49:10.323Z,1.80
2023-02-03T21:51:57.165Z,2.00
2023-02-03T21:54:44.507Z,1.70
2023-02-03T21:57:31.339Z,1.90
2023-02-03T22:00:39.917Z,1.80
2023-02-03T22:03:35.266Z,1.90
2023-02-03T22:06:24.672Z,1.83
2023-02-03T22:09:13.621Z,1.85
2023-02-03T22:12:01.353Z,1.90
2023-02-03T22:14:48.239Z,1.80
2023-02-03T22:17:35.075Z,1.77
2023-02-03T22:20:22.045Z,1.88
2023-02-03T22:23:08.826Z,1.90
2023-02-03T22:25:55.699Z,1.77
2023-02-03T22:28:45.340Z,2.03
2023-02-03T22:31:32.351Z,1.80
2023-02-03T22:34:19.188Z,1.92
2023-02-03T22:37:05.965Z,1.80
2023-02-03T22:39:52.766Z,1.65
2023-02-03T22:42:40.041Z,2.13
2023-02-03T22:45:26.833Z,2.03
2023-02-03T22:48:13.631Z,1.92
2023-02-03T22:51:01.377Z,2.00
2023-02-03T22:53:48.276Z,1.95
2023-02-03T22:56:35.078Z,1.77
2023-02-03T22:59:21.868Z,2.13
2023-02-03T23:02:08.647Z,1.80
2023-02-03T23:04:55.536Z,1.90
2023-02-03T23:07:42.407Z,1.80
2023-02-03T23:10:32.514Z,1.92
2023-02-03T23:13:19.558Z,1.90
2023-02-03T23:16:08.888Z,1.88
2023-02-03T23:18:55.735Z,2.30
2023-02-03T23:21:42.550Z,1.95
2023-02-03T23:24:29.352Z,1.92
2023-02-03T23:27:16.170Z,2.00
2023-02-03T23:30:03.962Z,1.83
2023-02-03T23:32:50.812Z,2.00
2023-02-03T23:35:46.589Z,1.98
2023-02-03T23:38:33.612Z,2.00
2023-02-03T23:41:20.402Z,2.00
2023-02-03T23:44:07.192Z,1.90
2023-02-03T23:46:54.059Z,2.10
2023-02-03T23:49:40.814Z,1.92
2023-02-03T23:52:27.941Z,2.00
2023-02-03T23:55:17.727Z,2.20
2023-02-03T23:58:05.048Z,2.30
